Tiempo atmosférico en la estación meteorológica de Carballiño, O, Ourense (400 m.)



Fecha
DESCASC
Temp. máxima en grados centígrados (hora)
DESCASC
Temp. mínima en grados centígrados (hora)
DESCASC
Temp. media en grados centígrados
DESCASC
Racha de viento máxima en m/sg (hora)
DESCASC
Velocidad máxima media en intervalos de 10 minutos(hora)
DESCASC
Precipitaciones diarias en mm
DESCASC
Precipitaciones de 00:00 a 06:00 en mm
DESCASC
Precipitaciones de 06:00 a 12:00 en mm
DESCASC
Precipitaciones de 12:00 a 18:00 en mm
DESCASC
Precipitaciones de 18:00 a 24:00 en mm
DESCASC
16-01-2020 13.1 (08:10) 8.5 (23:40) 10.8 10 (17:50) 3.61 (17:50) 18.7 3.9 2.4 8.5 3.9
15-01-2020 15 (15:40) 9 (10:10) 12 9.72 (03:00) 2.5 (02:20) 11.5 6.6 4.9 0 0
14-01-2020 14.1 (13:10) 9.7 (00:00) 11.9 11.67 (17:20) 2.78 (15:20) 0 0 0 0 0
13-01-2020 12.2 (15:50) 1.1 (08:00) 6.6 8.89 (14:40) 2.22 (14:30) 0 0 0 0 0
12-01-2020 10 (15:30) -2.8 (-00:0) 3.6 2.22 (14:30) 0.28 (13:50) 0 0 0 0 0
11-01-2020 12 (15:30) -2.1 (-00:0) 5 2.22 (01:10) 0.83 (13:50) 0 0 0 0 0
10-01-2020 11.4 (16:00) 0 (00:00) 5.7 4.72 (15:20) 2.22 (16:30) 0.1 0.1 0 0 0
09-01-2020 12.8 (13:10) 2.8 (00:00) 7.8 10 (14:00) 3.89 (14:30) 2.1 0.2 0.2 1.7 0
08-01-2020 10.4 (16:40) 0.8 (00:00) 5.6 0 (00:10) 0 (00:10) 0 0 0 0 0
07-01-2020 9.4 (16:30) -1.7 (-00:0) 3.8 0 (00:10) 0 (00:10) 0 0 0 0 0
06-01-2020 7.2 (16:40) -2.7 (-00:0) 2.2 2.22 (14:50) 0.56 (14:10) 0 0 0 0 0
05-01-2020 10.3 (15:40) -2 (-00:0) 4.2 2.22 (01:10) 0.28 (22:00) 0 0 0 0 0
04-01-2020 8.1 (16:40) 1.8 (00:00) 5 2.78 (17:10) 1.11 (17:00) 0 0 0 0 0
03-01-2020 11.1 (15:40) 6.3 (00:00) 8.7 2.78 (01:20) 1.11 (01:20) 1.9 0 1.7 0.2 0
02-01-2020 9.3 (15:50) -3.6 (-00:0) 2.9 2.78 (18:10) 0.83 (23:30) 0 0 0 0 0
01-01-2020 3.6 (16:30) -2 (-00:0) 0.8 0 (00:10) 0 (00:10) 0 0 0 0 0
31-12-2019 5.9 (15:50) -1.3 (-00:0) 2.3 1.39 (01:10) 0.28 (11:10) 0 0 0 0 0
30-12-2019 14.2 (15:40) -1.5 (-00:0) 6.3 1.94 (14:00) 0.28 (14:00) 0 0 0 0 0
29-12-2019 15.9 (15:50) -1.4 (-00:0) 7.2 0 (20:30) 0 (00:10) 0 0 0 0 0
28-12-2019 15.1 (16:10) -1.7 (-00:0) 6.7 1.94 (22:40) 0.28 (02:40) 0 0 0 0 0
27-12-2019 12.3 (15:20) -1.3 (-00:0) 5.5 2.5 (20:20) 1.11 (20:20) 0 0 0 0 0
26-12-2019 12.5 (15:30) 1.6 (00:00) 7.1 3.89 (01:30) 0.83 (01:30) 0.1 0 0.1 0 0
25-12-2019 14.7 (16:20) 7.2 (00:00) 10.9 11.11 (19:20) 2.78 (19:10) 0.8 0 0 0 0.8
24-12-2019 16.8 (14:00) 8.2 (00:00) 12.5 4.17 (00:30) 1.11 (19:30) 0.5 0.5 0 0 0
23-12-2019 12.5 (23:00) 3.9 (00:00) 8.2 3.06 (08:40) 1.67 (10:10) 3.4 0 0 2.6 0.8
22-12-2019 12.9 (09:40) 5.3 (00:00) 9.1 17.5 (09:30) 5.28 (12:00) 9.6 1.8 7.5 0 0.3
21-12-2019 13.9 (11:20) 8.9 (00:00) 11.4 19.72 (19:50) 6.39 (21:00) 23 2.4 5.6 6.6 8.4
20-12-2019 10.5 (16:20) 6.8 (00:00) 8.7 9.44 (00:10) 4.17 (00:10) 22.8 9.4 4.1 8.3 1
19-12-2019 13.1 (00:00) 7.9 (04:50) 10.5 17.22 (04:10) 5.56 (04:10) 25.3 6.4 5 6.8 7.1

Gráficas

Temp. máximas Temp. mínimas Temp. medias Precipitaciones Rachas de viento máximas Velocidades máximas media en intervalos de 10 minutos

Datos horarios

Fecha y hora oficial Temperatura (ºC) Velocidad del viento (km/h) Dirección del viento Racha (km/h) Dirección de racha Precipitación (mm) Presión (hPa) Tendencia (hPa) Humedad (%)
2020-01-17 23:00:00 6.5 0 Calma 8 Nordeste 0 -- -- 93
2020-01-17 22:00:00 6.9 0 Calma 6 Norte 0 -- -- 92
2020-01-17 21:00:00 7.1 0 Calma 4 Nordeste 0 -- -- 91
2020-01-17 20:00:00 7.5 0 Calma 6 Nordeste 0 -- -- 90
2020-01-17 19:00:00 8.2 0 Calma -- -- 0 -- -- 86
2020-01-17 18:00:00 9.1 0 Calma 4 Este 0 -- -- 78
2020-01-17 17:00:00 9.8 0 Calma -- -- 0 -- -- 74
2020-01-17 16:00:00 9.9 0 Calma 4 Sudoeste 0 -- -- 72
2020-01-17 15:00:00 9.9 0 Calma 4 Sur 0 -- -- 75
2020-01-17 14:00:00 9.6 0 Calma 6 Sudeste 0 -- -- 79
2020-01-17 13:00:00 8.8 0 Calma -- -- 0 -- -- 90
2020-01-17 12:00:00 7.9 0 Calma 5 Sur 0 -- -- 98
2020-01-17 11:00:00 6.7 0 Calma 8 Oeste 0 -- -- 98
2020-01-17 10:00:00 5 0 Calma -- -- 0 -- -- 98
2020-01-17 09:00:00 5.3 0 Calma -- -- 0.2 -- -- 98
2020-01-17 08:00:00 5.1 0 Calma 16 Oeste 0.1 -- -- 98
2020-01-17 07:00:00 4.9 0 Calma -- -- 0 -- -- 97
2020-01-17 06:00:00 4.8 0 Calma -- -- 0 -- -- 96
2020-01-17 05:00:00 5.9 0 Calma 7 Sudoeste 0.3 -- -- 96
2020-01-17 04:00:00 6.2 0 Calma 12 Oeste 0.1 -- -- 95
2020-01-17 03:00:00 6.9 0 Calma 10 Sudoeste 1.1 -- -- 95
2020-01-17 02:00:00 7.5 2 Sudoeste 12 Oeste 0 -- -- 95
2020-01-17 01:00:00 8.2 3 Oeste 15 Noroeste 0.7 -- -- 96
2020-01-17 00:00:00 8.5 0 Calma 6 Sur 0.1 -- -- 96
2020-01-16 23:00:00 8.7 0 Calma 10 Oeste 0.4 -- -- 96
2020-01-16 22:00:00 8.8 0 Calma 9 Sur 0 -- -- 95
2020-01-16 21:00:00 8.9 2 Sudoeste 17 Oeste 2.1 -- -- 95
2020-01-16 20:00:00 9.2 0 Calma 6 Sur 0.1 -- -- 95
2020-01-16 19:00:00 9.3 0 Calma 9 Sudeste 1.2 -- -- 94
2020-01-16 18:00:00 9.5 3 Noroeste 36 Noroeste 6.1 -- -- 91
2020-01-16 17:00:00 10.6 3 Sudoeste 21 Sudeste 0.5 -- -- 80
2020-01-16 16:00:00 10.9 5 Sur 23 Sur 1.3 -- -- 82
2020-01-16 15:00:00 11.9 4 Sur 22 Sur 0.4 -- -- 78
2020-01-16 14:00:00 12.8 6 Sur 32 Sur 0 -- -- 77
2020-01-16 13:00:00 12.8 4 Sur 32 Sur 0.2 -- -- 81
2020-01-16 12:00:00 12.9 6 Sur 27 Sur 0.5 -- -- 83
2020-01-16 11:00:00 12.9 5 Sur 24 Sur 0.1 -- -- 86
2020-01-16 10:00:00 12.2 3 Sudoeste 31 Sudoeste 0.8 -- -- 91
2020-01-16 09:00:00 12.2 2 Sudoeste 28 Oeste 1 -- -- 87
2020-01-16 08:00:00 13 6 Sur 26 Sudoeste 0 -- -- 78
2020-01-16 07:00:00 12.5 2 Sudoeste 27 Sur 0 -- -- 85
2020-01-16 06:00:00 12.5 5 Sudoeste 30 Sudoeste 0.1 -- -- 89
2020-01-16 05:00:00 12.3 4 Sudoeste 23 Sudoeste 0.2 -- -- 95
2020-01-16 04:00:00 12 2 Sudoeste 13 Sudeste 3 -- -- 93
2020-01-16 03:00:00 11.6 0 Calma 8 Sur 0.6 -- -- 88
2020-01-16 02:00:00 12.1 0 Calma 15 Sur 0 -- -- 82
2020-01-16 01:00:00 11.9 2 Sur 21 Sur 0 -- -- 82
2020-01-16 00:00:00 11.6 2 Sur 11 Sur 0 -- -- 84
2020-01-15 23:00:00 10.3 0 Calma 7 Este 0 -- -- 85
2020-01-15 22:00:00 11.1 0 Calma 7 Nordeste 0 -- -- 82
2020-01-15 21:00:00 10.8 0 Calma 5 Nordeste 0 -- -- 82
2020-01-15 20:00:00 10.7 0 Calma 5 Este 0 -- -- 80
2020-01-15 19:00:00 11.2 0 Calma 5 Sur 0 -- -- 75
2020-01-15 18:00:00 12.9 0 Calma 15 Sudeste 0 -- -- 67
2020-01-15 17:00:00 13.8 3 Sur 19 Sudoeste 0 -- -- 63
2020-01-15 16:00:00 14.3 4 Sur 21 Sur 0 -- -- 64
2020-01-15 15:00:00 14 3 Sudoeste 15 Sur 0 -- -- 69
2020-01-15 14:00:00 13.1 0 Calma 10 Oeste 0 -- -- 79
2020-01-15 13:00:00 11.8 0 Calma 7 Sudeste 0 -- -- 83
2020-01-15 12:00:00 10.6 0 Calma 4 Sur 0 -- -- 96
2020-01-15 11:00:00 9.9 0 Calma 6 Sudeste 0 -- -- 97
2020-01-15 10:00:00 9.2 2 Noroeste 12 Noroeste 0 -- -- 97
2020-01-15 09:00:00 9.6 0 Calma 14 Sudoeste 0.6 -- -- 97
2020-01-15 08:00:00 9.6 0 Calma 18 Sudoeste 3 -- -- 96
2020-01-15 07:00:00 10.6 4 Sur 20 Sudeste 1.3 -- -- 96
2020-01-15 06:00:00 10.8 2 Sur 19 Oeste 2.1 -- -- 95
2020-01-15 05:00:00 11.1 5 Sudoeste 29 Sudoeste 3.5 -- -- 94
2020-01-15 04:00:00 11.4 5 Sudoeste 34 Sur 1 -- -- 90
2020-01-15 03:00:00 12.7 7 Sudoeste 35 Sur 0 -- -- 77
2020-01-15 02:00:00 12.4 7 Sur 32 Sur 0 -- -- 79
2020-01-15 01:00:00 12.2 5 Sudoeste 31 Sur 0 -- -- 81
2020-01-15 00:00:00 12.2 8 Sudoeste 36 Sudoeste 0 -- -- 79
2020-01-14 23:00:00 12.1 6 Sudoeste 29 Sudoeste 0 -- -- 78
2020-01-14 22:00:00 12.2 5 Sudoeste 29 Sudoeste 0 -- -- 75
2020-01-14 21:00:00 12 5 Sudoeste 37 Sudoeste 0 -- -- 73
2020-01-14 20:00:00 12 6 Sur 35 Sur 0 -- -- 70
2020-01-14 19:00:00 12 7 Sudoeste 33 Sur 0 -- -- 70
2020-01-14 18:00:00 12 8 Sudoeste 42 Oeste 0 -- -- 71
2020-01-14 17:00:00 11.7 8 Sudoeste 32 Sudoeste 0 -- -- 76
2020-01-14 16:00:00 11.8 8 Sudoeste 38 Sur 0 -- -- 79
2020-01-14 15:00:00 12.1 7 Sudoeste 32 Sur 0 -- -- 76
2020-01-14 14:00:00 12.9 9 Sudoeste 36 Sur 0 -- -- 70
2020-01-14 13:00:00 13.9 9 Sur 35 Sur 0 -- -- 66
2020-01-14 12:00:00 11.6 5 Sudoeste 23 Sudoeste 0 -- -- 78
2020-01-14 11:00:00 11.4 5 Sudoeste 26 Sur 0 -- -- 79
2020-01-14 10:00:00 11.1 5 Sudoeste 23 Sur 0 -- -- 79
2020-01-14 09:00:00 10.7 0 Calma 22 Sur 0 -- -- 81
2020-01-14 08:00:00 10.4 3 Sur 18 Sur 0 -- -- 82
2020-01-14 07:00:00 10.3 4 Sur 26 Sur 0 -- -- 82
2020-01-14 06:00:00 10.2 6 Sur 26 Sudeste 0 -- -- 82
2020-01-14 05:00:00 10.1 3 Sur 21 Sur 0 -- -- 84
2020-01-14 04:00:00 10.1 5 Sudeste 27 Sudeste 0 -- -- 85
2020-01-14 03:00:00 9.9 3 Sur 23 Sudoeste 0 -- -- 85
2020-01-14 02:00:00 9.9 7 Sur 32 Sur 0 -- -- 85
2020-01-14 01:00:00 9.9 5 Sudoeste 29 Sur 0 -- -- 85
2020-01-14 00:00:00 9.7 6 Sudoeste 31 Sur 0 -- -- 85
2020-01-13 23:00:00 9.4 6 Sur 22 Sudeste 0 -- -- 85
2020-01-13 22:00:00 9.3 5 Sur 25 Sudoeste 0 -- -- 85
2020-01-13 21:00:00 9.4 4 Sudoeste 20 Sur 0 -- -- 83
2020-01-13 20:00:00 9.1 4 Sur 26 Sudeste 0 -- -- 80
2020-01-13 19:00:00 9.1 4 Sudoeste 23 Sudoeste 0 -- -- 75
2020-01-13 18:00:00 9.5 3 Oeste 18 Oeste 0 -- -- 68
2020-01-13 17:00:00 10.7 4 Sur 23 Sur 0 -- -- 61
2020-01-13 16:00:00 12 3 Oeste 24 Oeste 0 -- -- 56
2020-01-13 15:00:00 11.3 6 Sur 32 Sur 0 -- -- 56
2020-01-13 14:00:00 11 6 Sur 23 Sur 0 -- -- 55
2020-01-13 13:00:00 10.7 5 Sur 17 Sur 0 -- -- 59
2020-01-13 12:00:00 6.4 0 Calma 12 Este 0 -- -- 84
2020-01-13 11:00:00 4.1 0 Calma -- -- 0 -- -- 98
2020-01-13 10:00:00 2.6 0 Calma -- -- 0 -- -- 98
2020-01-13 09:00:00 1.9 0 Calma -- -- 0 -- -- 98
2020-01-13 08:00:00 1.1 0 Calma -- -- 0 -- -- 97
2020-01-13 07:00:00 1.3 0 Calma -- -- 0 -- -- 97
2020-01-13 06:00:00 1.6 0 Calma -- -- 0 -- -- 97
2020-01-13 05:00:00 1.8 0 Calma -- -- 0 -- -- 97
2020-01-13 04:00:00 1.4 0 Calma -- -- 0 -- -- 96
2020-01-13 03:00:00 2 0 Calma -- -- 0 -- -- 96
2020-01-13 02:00:00 1.8 0 Calma -- -- 0 -- -- 96
2020-01-13 01:00:00 1.9 0 Calma -- -- 0 -- -- 95
2020-01-13 00:00:00 2.7 0 Calma -- -- 0 -- -- 95
2020-01-12 23:00:00 3.1 0 Calma -- -- 0 -- -- 94
2020-01-12 22:00:00 2.5 0 Calma -- -- 0 -- -- 91
2020-01-12 21:00:00 3.2 0 Calma -- -- 0 -- -- 90
2020-01-12 20:00:00 4.3 0 Calma -- -- 0 -- -- 85
2020-01-12 19:00:00 6 0 Calma -- -- 0 -- -- 77
2020-01-12 18:00:00 7.9 0 Calma -- -- 0 -- -- 70
2020-01-12 17:00:00 9.5 0 Calma -- -- 0 -- -- 66
2020-01-12 16:00:00 9.1 0 Calma 4 Sur 0 -- -- 66
2020-01-12 15:00:00 9.1 0 Calma 8 Sur 0 -- -- 70
2020-01-12 14:00:00 7.1 0 Calma 6 Sudeste 0 -- -- 77
2020-01-12 13:00:00 5.5 0 Calma 5 Sudoeste 0 -- -- 89
2020-01-12 12:00:00 2.2 0 Calma -- -- 0 -- -- 98
2020-01-12 11:00:00 -0.4 0 Calma 3 Sudeste 0 -- -- 98
2020-01-12 10:00:00 -1.7 0 Calma -- -- 0 -- -- 98
2020-01-12 09:00:00 -2.7 0 Calma -- -- 0 -- -- 98
2020-01-12 08:00:00 -2.5 0 Calma -- -- 0 -- -- 98
2020-01-12 07:00:00 -2.1 0 Calma -- -- 0 -- -- 98
2020-01-12 06:00:00 -2.2 0 Calma -- -- 0 -- -- 97
2020-01-12 05:00:00 -1.9 0 Calma -- -- 0 -- -- 97
2020-01-12 04:00:00 -1.3 0 Calma 2 Este 0 -- -- 96
2020-01-12 03:00:00 -1 0 Calma 0 Calma 0 -- -- 95
2020-01-12 02:00:00 -0.6 0 Calma 4 Nordeste 0 -- -- 95
2020-01-12 01:00:00 0.2 0 Calma 6 Nordeste 0 -- -- 94
2020-01-12 00:00:00 0.6 0 Calma 4 Norte 0 -- -- 93
2020-01-11 23:00:00 1.6 0 Calma 8 Nordeste 0 -- -- 91
2020-01-11 22:00:00 2.3 0 Calma 6 Nordeste 0 -- -- 90
2020-01-11 21:00:00 3.4 0 Calma 3 Nordeste 0 -- -- 88
2020-01-11 20:00:00 5 0 Calma -- -- 0 -- -- 84
2020-01-11 19:00:00 6.5 0 Calma -- -- 0 -- -- 76
2020-01-11 18:00:00 8.8 0 Calma 2 Sur 0 -- -- 67
2020-01-11 17:00:00 11 0 Calma 5 Sur 0 -- -- 60
2020-01-11 16:00:00 11.7 0 Calma 4 Sudeste 0 -- -- 59
2020-01-11 15:00:00 10.7 0 Calma 4 Sudoeste 0 -- -- 63
2020-01-11 14:00:00 9.6 0 Calma 6 Sur 0 -- -- 68
2020-01-11 13:00:00 6.3 0 Calma -- -- 0 -- -- 97
2020-01-11 12:00:00 2.9 0 Calma -- -- 0 -- -- 99
2020-01-11 11:00:00 0.3 0 Calma -- -- 0 -- -- 98
2020-01-11 10:00:00 -1.7 0 Calma 2 Norte 0 -- -- 98
2020-01-11 09:00:00 -2 0 Calma -- -- 0 -- -- 98
2020-01-11 08:00:00 -1.8 0 Calma 3 Norte 0 -- -- 98
2020-01-11 07:00:00 -1.5 0 Calma -- -- 0 -- -- 98
2020-01-11 06:00:00 -1.2 0 Calma -- -- 0 -- -- 97
2020-01-11 05:00:00 -1.2 0 Calma -- -- 0 -- -- 97
2020-01-11 04:00:00 -0.9 0 Calma 3 Nordeste 0 -- -- 96
2020-01-11 03:00:00 -0.4 0 Calma -- -- 0 -- -- 96
2020-01-11 02:00:00 0.1 0 Calma 8 Nordeste 0 -- -- 96
2020-01-11 01:00:00 0.2 0 Calma -- -- 0 -- -- 95
2020-01-11 00:00:00 0.6 0 Calma -- -- 0 -- -- 94
2020-01-10 23:00:00 1.2 0 Calma -- -- 0 -- -- 92
2020-01-10 22:00:00 2 0 Calma -- -- 0 -- -- 90
2020-01-10 21:00:00 3 0 Calma -- -- 0 -- -- 86
2020-01-10 20:00:00 4.5 0 Calma -- -- 0 -- -- 80
2020-01-10 19:00:00 6.6 0 Calma -- -- 0 -- -- 70
2020-01-10 18:00:00 8.8 0 Calma 15 Nordeste 0 -- -- 60
2020-01-10 17:00:00 10.4 6 Nordeste 17 Nordeste 0 -- -- 54
2020-01-10 16:00:00 11.2 6 Nordeste 17 Nordeste 0 -- -- 57
2020-01-10 15:00:00 8.8 0 Calma 4 Sur 0 -- -- 78
2020-01-10 14:00:00 8.9 0 Calma 7 Sur 0 -- -- 77
2020-01-10 13:00:00 8.6 0 Calma 10 Noroeste 0 -- -- 88
2020-01-10 12:00:00 5.5 0 Calma 0 Calma 0 -- -- 98
2020-01-10 11:00:00 2.3 0 Calma 3 Sur 0 -- -- 99
2020-01-10 10:00:00 0.3 0 Calma 8 Sudeste 0 -- -- 98
2020-01-10 09:00:00 0 0 Calma -- -- 0 -- -- 98
2020-01-10 08:00:00 0.6 0 Calma -- -- 0 -- -- 98
2020-01-10 07:00:00 0.5 0 Calma 0 Calma 0 -- -- 97
2020-01-10 06:00:00 0.5 0 Calma -- -- 0 -- -- 97
2020-01-10 05:00:00 1.1 0 Calma -- -- 0 -- -- 97
2020-01-10 04:00:00 1.7 0 Calma 4 Nordeste 0 -- -- 97
2020-01-10 03:00:00 2.1 0 Calma -- -- 0 -- -- 96
2020-01-10 02:00:00 2.3 0 Calma -- -- 0 -- -- 96
2020-01-10 01:00:00 3 0 Calma 7 Nordeste 0.1 -- -- 96
2020-01-10 00:00:00 2.9 0 Calma -- -- 0 -- -- 94
2020-01-09 23:00:00 3 0 Calma 0 Calma 0 -- -- 93
2020-01-09 22:00:00 3.5 0 Calma -- -- 0 -- -- 90
2020-01-09 21:00:00 4.8 0 Calma -- -- 0 -- -- 85
2020-01-09 20:00:00 6.2 0 Calma 12 Noroeste 0 -- -- 80
2020-01-09 19:00:00 7.5 3 Noroeste 10 Noroeste 0 -- -- 75
2020-01-09 18:00:00 9.1 3 Noroeste 16 Oeste 0 -- -- 69
2020-01-09 17:00:00 10.3 7 Oeste 28 Noroeste 0 -- -- 66
2020-01-09 16:00:00 11.2 3 Oeste 33 Oeste 0 -- -- 72
2020-01-09 15:00:00 11.4 13 Oeste 35 Oeste 0 -- -- 77
2020-01-09 14:00:00 11.6 13 Oeste 36 Noroeste 1.7 -- -- 86
2020-01-09 13:00:00 12.7 6 Oeste 21 Sudoeste 0 -- -- 95
2020-01-09 12:00:00 11.8 3 Sudoeste 19 Sudoeste 0 -- -- 97
2020-01-09 11:00:00 10.4 0 Calma 10 Sur 0 -- -- 97
2020-01-09 10:00:00 10 2 Sur 9 Sur 0.1 -- -- 97
2020-01-09 09:00:00 8.9 0 Calma -- -- 0.1 -- -- 97
2020-01-09 08:00:00 8.5 0 Calma -- -- 0 -- -- 97
2020-01-09 07:00:00 8.2 0 Calma -- -- 0 -- -- 97
2020-01-09 06:00:00 8 0 Calma -- -- 0.2 -- -- 97
2020-01-09 05:00:00 7.6 0 Calma -- -- 0 -- -- 95
2020-01-09 04:00:00 7.4 0 Calma -- -- 0 -- -- 95
2020-01-09 03:00:00 7.1 0 Calma -- -- 0 -- -- 95
2020-01-09 02:00:00 7 0 Calma -- -- 0 -- -- 93
2020-01-09 01:00:00 7.2 0 Calma -- -- 0 -- -- 91
2020-01-09 00:00:00 8.2 0 Calma -- -- 0 -- -- 89
2020-01-08 23:00:00 8.6 0 Calma -- -- 0 -- -- 88
2020-01-08 22:00:00 8.7 0 Calma -- -- 0 -- -- 85
2020-01-08 21:00:00 8.8 0 Calma -- -- 0 -- -- 84
2020-01-08 20:00:00 8.9 0 Calma -- -- 0 -- -- 82
2020-01-08 19:00:00 9.2 0 Calma -- -- 0 -- -- 79
2020-01-08 18:00:00 9.8 0 Calma -- -- 0 -- -- 80
2020-01-08 17:00:00 10.2 0 Calma -- -- 0 -- -- 78
2020-01-08 16:00:00 10 0 Calma -- -- 0 -- -- 73
2020-01-08 15:00:00 9.9 0 Calma -- -- 0 -- -- 78
2020-01-08 14:00:00 9.1 0 Calma -- -- 0 -- -- 78
2020-01-08 13:00:00 7.9 0 Calma -- -- 0 -- -- 85
2020-01-08 12:00:00 5.8 0 Calma -- -- 0 -- -- 96
2020-01-08 11:00:00 3.8 0 Calma -- -- 0 -- -- 98
2020-01-08 10:00:00 3 0 Calma -- -- 0 -- -- 98
2020-01-08 09:00:00 2.4 0 Calma -- -- 0 -- -- 98
2020-01-08 08:00:00 1.5 0 Calma -- -- 0 -- -- 98
2020-01-08 07:00:00 1.2 0 Calma -- -- 0 -- -- 98
2020-01-08 06:00:00 1.8 0 Calma -- -- 0 -- -- 98
2020-01-08 05:00:00 1.5 0 Calma -- -- 0 -- -- 97
2020-01-08 04:00:00 1.2 0 Calma -- -- 0 -- -- 97
2020-01-08 03:00:00 1.2 0 Calma -- -- 0 -- -- 97
2020-01-08 02:00:00 1 0 Calma -- -- 0 -- -- 96
2020-01-08 01:00:00 1.2 0 Calma -- -- 0 -- -- 96
2020-01-08 00:00:00 1.7 0 Calma -- -- 0 -- -- 95
2020-01-07 23:00:00 1.7 0 Calma -- -- 0 -- -- 94
2020-01-07 22:00:00 2 0 Calma -- -- 0 -- -- 92
2020-01-07 21:00:00 2.8 0 Calma -- -- 0 -- -- 90
2020-01-07 20:00:00 4.1 0 Calma -- -- 0 -- -- 87
2020-01-07 19:00:00 5.5 0 Calma -- -- 0 -- -- 80
2020-01-07 18:00:00 7.9 0 Calma -- -- 0 -- -- 70
2020-01-07 17:00:00 9.1 0 Calma -- -- 0 -- -- 65
2020-01-07 16:00:00 8.9 0 Calma -- -- 0 -- -- 67
2020-01-07 15:00:00 7.2 0 Calma -- -- 0 -- -- 74
2020-01-07 14:00:00 5.3 0 Calma -- -- 0 -- -- 96
2020-01-07 13:00:00 4 0 Calma -- -- 0 -- -- 99
2020-01-07 12:00:00 1.9 0 Calma -- -- 0 -- -- 99
2020-01-07 11:00:00 -0.4 0 Calma -- -- 0 -- -- 99
2020-01-07 10:00:00 -1.4 0 Calma -- -- 0 -- -- 99
2020-01-07 09:00:00 -1.4 0 Calma -- -- 0 -- -- 99
2020-01-07 08:00:00 -0.9 0 Calma -- -- 0 -- -- 99
2020-01-07 07:00:00 -1 0 Calma -- -- 0 -- -- 99
2020-01-07 06:00:00 -0.8 0 Calma -- -- 0 -- -- 98
2020-01-07 05:00:00 -1 0 Calma -- -- 0 -- -- 98
2020-01-07 04:00:00 -1.4 0 Calma -- -- 0 -- -- 98
2020-01-07 03:00:00 -1.2 0 Calma -- -- 0 -- -- 97
2020-01-07 02:00:00 -1.1 0 Calma -- -- 0 -- -- 97
2020-01-07 01:00:00 -1 0 Calma -- -- 0 -- -- 96
2020-01-07 00:00:00 -0.5 0 Calma -- -- 0 -- -- 95
2020-01-06 23:00:00 -0.2 0 Calma -- -- 0 -- -- 94
2020-01-06 22:00:00 0.4 0 Calma -- -- 0 -- -- 94
2020-01-06 21:00:00 1.2 0 Calma -- -- 0 -- -- 92
2020-01-06 20:00:00 2.4 0 Calma -- -- 0 -- -- 90
2020-01-06 19:00:00 3.7 0 Calma -- -- 0 -- -- 86
2020-01-06 18:00:00 5.7 0 Calma -- -- 0 -- -- 80
2020-01-06 17:00:00 7 0 Calma -- -- 0 -- -- 76
2020-01-06 16:00:00 6.9 0 Calma -- -- 0 -- -- 78
2020-01-06 15:00:00 4.3 0 Calma 8 Sudoeste 0 -- -- 91
2020-01-06 14:00:00 3.4 0 Calma 4 Sudeste 0 -- -- 98
2020-01-06 13:00:00 1.5 0 Calma 3 Sur 0 -- -- 98
2020-01-06 12:00:00 1 0 Calma 0 Calma 0 -- -- 98
2020-01-06 11:00:00 0.1 0 Calma -- -- 0 -- -- 98
2020-01-06 10:00:00 -2.3 0 Calma -- -- 0 -- -- 98